createdAt,value
2018-07-23T00:02:24.283Z,20.90
2018-07-23T00:04:52.875Z,20.90
2018-07-23T00:07:21.217Z,20.80
2018-07-23T00:09:49.596Z,20.80
2018-07-23T00:12:17.928Z,20.70
2018-07-23T00:14:46.305Z,20.70
2018-07-23T00:17:14.651Z,20.60
2018-07-23T00:19:43.000Z,20.60
2018-07-23T00:22:11.354Z,20.60
2018-07-23T00:24:39.707Z,20.50
2018-07-23T00:27:08.283Z,20.40
2018-07-23T00:29:36.649Z,20.30
2018-07-23T00:37:01.157Z,20.10
2018-07-23T00:39:29.534Z,20.00
2018-07-23T00:41:57.870Z,19.90
2018-07-23T00:44:26.296Z,19.90
2018-07-23T00:46:54.627Z,19.80
2018-07-23T00:49:22.971Z,19.80
2018-07-23T00:54:19.420Z,19.80
2018-07-23T00:56:47.751Z,19.80
2018-07-23T00:59:16.193Z,19.70
2018-07-23T01:01:44.520Z,19.70
2018-07-23T01:04:12.890Z,19.70
2018-07-23T01:06:41.240Z,19.60
2018-07-23T01:09:10.751Z,19.60
2018-07-23T01:11:39.163Z,19.50
2018-07-23T01:14:07.784Z,19.50
2018-07-23T01:16:36.133Z,19.50
2018-07-23T01:19:04.532Z,19.40
2018-07-23T01:21:32.900Z,19.40
2018-07-23T01:24:01.236Z,19.40
2018-07-23T01:26:29.604Z,19.30
2018-07-23T01:28:57.952Z,19.30
2018-07-23T01:31:26.328Z,19.30
2018-07-23T01:33:54.656Z,19.20
2018-07-23T01:36:23.015Z,19.20
2018-07-23T01:38:51.351Z,19.10
2018-07-23T01:41:19.712Z,19.10
2018-07-23T01:43:48.050Z,19.00
2018-07-23T01:46:16.411Z,19.00
2018-07-23T01:48:44.742Z,18.90
2018-07-23T01:51:13.103Z,18.90
2018-07-23T01:53:41.503Z,18.80
2018-07-23T01:56:09.860Z,18.70
2018-07-23T01:58:38.275Z,18.70
2018-07-23T02:01:10.208Z,18.70
2018-07-23T02:03:39.373Z,18.70
2018-07-23T02:06:08.260Z,18.60
2018-07-23T02:08:36.604Z,18.60
2018-07-23T02:11:05.884Z,18.50
2018-07-23T02:13:34.268Z,18.50
2018-07-23T02:16:02.673Z,18.50
2018-07-23T02:18:31.330Z,18.50
2018-07-23T02:20:59.728Z,18.50
2018-07-23T02:23:28.076Z,18.50
2018-07-23T02:25:56.455Z,18.50
2018-07-23T02:28:24.789Z,18.50
2018-07-23T02:30:53.152Z,18.50
2018-07-23T02:33:21.508Z,18.50
2018-07-23T02:35:49.876Z,18.40
2018-07-23T02:38:18.211Z,18.40
2018-07-23T02:40:46.589Z,18.40
2018-07-23T02:43:14.927Z,18.40
2018-07-23T02:45:43.309Z,18.40
2018-07-23T02:48:11.632Z,18.40
2018-07-23T02:50:39.996Z,18.30
2018-07-23T02:53:08.600Z,18.30
2018-07-23T02:55:36.972Z,18.20
2018-07-23T02:58:05.304Z,18.20
2018-07-23T03:00:33.702Z,18.20
2018-07-23T03:03:02.057Z,18.10
2018-07-23T03:05:30.423Z,18.10
2018-07-23T03:12:54.925Z,18.10
2018-07-23T03:15:23.300Z,18.10
2018-07-23T03:17:51.668Z,18.00
2018-07-23T03:20:20.019Z,18.00
2018-07-23T03:22:48.377Z,18.00
2018-07-23T03:25:16.720Z,18.00
2018-07-23T03:27:45.071Z,18.00
2018-07-23T03:30:13.421Z,18.00
2018-07-23T03:32:41.792Z,18.00
2018-07-23T03:35:10.145Z,18.00
2018-07-23T03:37:38.495Z,18.00
2018-07-23T03:40:06.845Z,18.00
2018-07-23T03:42:35.211Z,17.90
2018-07-23T03:45:03.580Z,17.90
2018-07-23T03:47:31.952Z,17.90
2018-07-23T03:52:28.372Z,17.90
2018-07-23T03:54:56.797Z,17.90
2018-07-23T03:57:25.158Z,17.90
2018-07-23T03:59:53.515Z,17.90
2018-07-23T04:02:21.884Z,17.90
2018-07-23T04:04:50.212Z,17.90
2018-07-23T04:07:18.563Z,17.90
2018-07-23T04:09:46.891Z,18.00
2018-07-23T04:12:15.270Z,18.00
2018-07-23T04:14:43.607Z,18.00
2018-07-23T04:17:12.014Z,18.00
2018-07-23T04:19:40.358Z,18.00
2018-07-23T04:22:08.720Z,18.00
2018-07-23T04:24:37.057Z,18.00
2018-07-23T04:27:05.452Z,18.10
2018-07-23T04:29:33.810Z,18.10
2018-07-23T04:32:02.182Z,18.10
2018-07-23T04:34:30.575Z,18.20
2018-07-23T04:36:58.937Z,18.20
2018-07-23T04:41:55.351Z,18.20
2018-07-23T04:44:23.683Z,18.20
2018-07-23T04:46:52.064Z,18.20
2018-07-23T04:49:20.426Z,18.30
2018-07-23T04:51:48.787Z,18.30
2018-07-23T04:54:17.151Z,18.40
2018-07-23T04:56:45.539Z,18.40
2018-07-23T04:59:13.896Z,18.50
2018-07-23T05:01:42.252Z,18.50
2018-07-23T05:04:10.583Z,18.60
2018-07-23T05:06:38.935Z,18.60
2018-07-23T05:09:09.495Z,18.60
2018-07-23T05:11:37.860Z,18.60
2018-07-23T05:14:06.880Z,18.70
2018-07-23T05:16:35.248Z,18.70
2018-07-23T05:19:03.696Z,18.80
2018-07-23T05:21:32.038Z,18.90
2018-07-23T05:24:00.401Z,18.90
2018-07-23T05:26:28.855Z,19.00
2018-07-23T05:28:57.215Z,19.00
2018-07-23T05:31:25.541Z,19.10
2018-07-23T05:33:53.937Z,19.10
2018-07-23T05:36:22.291Z,19.10
2018-07-23T05:38:50.656Z,19.10
2018-07-23T05:41:18.987Z,19.10
2018-07-23T05:43:47.348Z,19.20
2018-07-23T05:53:39.948Z,19.20
2018-07-23T06:01:04.492Z,19.30
2018-07-23T06:03:32.962Z,19.30
2018-07-23T06:06:01.296Z,19.40
2018-07-23T06:08:29.659Z,19.50
2018-07-23T06:10:58.035Z,19.60
2018-07-23T06:13:26.435Z,19.70
2018-07-23T06:15:54.768Z,19.80
2018-07-23T06:18:23.143Z,19.80
2018-07-23T06:20:51.507Z,19.90
2018-07-23T06:25:48.825Z,20.10
2018-07-23T06:28:17.276Z,20.20
2018-07-23T06:30:45.629Z,20.30
2018-07-23T06:33:14.248Z,20.40
2018-07-23T06:35:42.596Z,20.40
2018-07-23T06:40:39.024Z,20.60
2018-07-23T06:43:07.394Z,20.70
2018-07-23T06:45:35.735Z,20.70
2018-07-23T06:48:04.150Z,20.70
2018-07-23T06:50:32.561Z,20.80
2018-07-23T06:53:00.928Z,20.80
2018-07-23T06:55:29.319Z,20.90
2018-07-23T06:57:57.668Z,21.00
2018-07-23T07:00:26.092Z,21.10
2018-07-23T07:05:22.529Z,21.20
2018-07-23T07:07:50.884Z,21.30
2018-07-23T07:10:19.206Z,21.40
2018-07-23T07:15:15.616Z,21.50
2018-07-23T07:17:43.956Z,21.60
2018-07-23T07:20:12.325Z,21.80
2018-07-23T07:22:40.659Z,21.80
2018-07-23T07:25:09.033Z,21.90
2018-07-23T07:27:37.363Z,22.00
2018-07-23T07:30:06.884Z,22.10
2018-07-23T07:32:35.236Z,22.20
2018-07-23T07:37:31.689Z,22.30
2018-07-23T07:44:56.187Z,22.60
2018-07-23T07:47:24.532Z,22.60
2018-07-23T07:49:52.902Z,22.80
2018-07-23T07:52:21.232Z,22.90
2018-07-23T07:54:49.647Z,22.90
2018-07-23T07:57:17.987Z,23.00
2018-07-23T07:59:46.368Z,23.00
2018-07-23T08:02:14.691Z,23.10
2018-07-23T08:04:43.067Z,23.20
2018-07-23T08:07:11.450Z,23.30
2018-07-23T08:12:08.371Z,23.50
2018-07-23T08:14:36.725Z,23.60
2018-07-23T08:17:05.076Z,23.60
2018-07-23T08:19:33.424Z,23.70
2018-07-23T08:24:29.865Z,23.90
2018-07-23T08:26:58.207Z,24.00
2018-07-23T08:29:26.577Z,24.10
2018-07-23T08:31:55.011Z,24.10
2018-07-23T08:34:23.303Z,24.20
2018-07-23T08:39:19.731Z,24.30
2018-07-23T08:41:48.047Z,24.20
2018-07-23T08:44:16.392Z,24.30
2018-07-23T08:46:44.707Z,24.20
2018-07-23T08:49:13.055Z,24.10
2018-07-23T08:51:41.367Z,24.30
2018-07-23T08:54:09.720Z,24.60
2018-07-23T08:59:06.147Z,25.00
2018-07-23T09:01:34.477Z,25.10
2018-07-23T09:04:02.829Z,25.30
2018-07-23T09:11:27.315Z,25.50
2018-07-23T09:13:55.655Z,25.60
2018-07-23T09:16:24.004Z,25.40
2018-07-23T09:18:52.326Z,25.30
2018-07-23T09:21:20.689Z,25.30
2018-07-23T09:23:49.147Z,25.40
2018-07-23T09:26:17.521Z,25.40
2018-07-23T09:28:45.919Z,25.60
2018-07-23T09:31:14.348Z,25.60
2018-07-23T09:33:42.780Z,25.60
2018-07-23T09:36:11.140Z,25.70
2018-07-23T09:38:39.464Z,25.80
2018-07-23T09:41:07.830Z,25.80
2018-07-23T09:43:36.159Z,26.00
2018-07-23T09:46:04.699Z,26.20
2018-07-23T09:48:33.028Z,26.30
2018-07-23T09:51:01.387Z,26.40
2018-07-23T09:53:29.744Z,26.30
2018-07-23T09:55:58.172Z,26.40
2018-07-23T09:58:26.653Z,26.50
2018-07-23T10:01:02.312Z,26.70
2018-07-23T10:03:30.929Z,27.00
2018-07-23T10:05:59.226Z,27.00
2018-07-23T10:08:27.616Z,27.20
2018-07-23T10:10:56.053Z,27.40
2018-07-23T10:13:24.476Z,27.60
2018-07-23T10:15:52.889Z,27.70
2018-07-23T10:18:21.342Z,27.60
2018-07-23T10:20:49.769Z,27.60
2018-07-23T10:23:18.136Z,27.80
2018-07-23T10:25:46.542Z,27.90
2018-07-23T10:28:14.938Z,27.80
2018-07-23T10:30:43.339Z,27.90
2018-07-23T10:33:11.760Z,27.80
2018-07-23T10:35:40.161Z,27.90
2018-07-23T10:38:08.546Z,27.90
2018-07-23T10:40:36.957Z,27.80
2018-07-23T10:43:05.386Z,27.90
2018-07-23T10:45:33.845Z,28.10
2018-07-23T10:48:02.304Z,28.10
2018-07-23T10:50:30.657Z,28.10
2018-07-23T10:52:58.983Z,28.30
2018-07-23T10:55:27.368Z,28.40
2018-07-23T10:57:55.724Z,28.60
2018-07-23T11:00:24.100Z,28.80
2018-07-23T11:02:52.478Z,28.90
2018-07-23T11:05:20.812Z,28.70
2018-07-23T11:10:17.256Z,29.00
2018-07-23T11:12:45.614Z,29.20
2018-07-23T11:15:13.980Z,29.40
2018-07-23T11:17:42.336Z,29.20
2018-07-23T11:20:12.107Z,29.00
2018-07-23T11:22:40.828Z,29.00
2018-07-23T11:25:38.701Z,28.90
2018-07-23T11:27:37.575Z,28.90
2018-07-23T11:34:56.555Z,29.00
2018-07-23T11:37:24.927Z,29.60
2018-07-23T11:39:53.272Z,30.00
2018-07-23T11:42:21.655Z,30.30
2018-07-23T11:44:49.995Z,30.60
2018-07-23T11:47:18.361Z,30.80
2018-07-23T11:49:46.705Z,31.00
2018-07-23T11:52:15.065Z,31.30
2018-07-23T11:54:43.613Z,31.30
2018-07-23T11:57:12.205Z,31.30
2018-07-23T11:59:41.700Z,31.40
2018-07-23T12:04:38.269Z,31.80
2018-07-23T12:07:07.172Z,32.00
2018-07-23T12:09:35.511Z,32.20
2018-07-23T12:12:03.876Z,32.30
2018-07-23T12:14:32.340Z,32.40
2018-07-23T12:17:00.695Z,32.50
2018-07-23T12:19:29.024Z,32.70
2018-07-23T12:21:57.371Z,32.70
2018-07-23T12:24:25.710Z,32.60
2018-07-23T12:26:54.067Z,32.40
2018-07-23T12:29:22.401Z,32.40
2018-07-23T12:31:50.756Z,32.20
2018-07-23T12:34:19.109Z,32.10
2018-07-23T12:36:47.462Z,32.10
2018-07-23T12:39:15.794Z,32.10
2018-07-23T12:41:44.148Z,32.30
2018-07-23T12:44:12.481Z,32.50
2018-07-23T12:46:40.859Z,32.70
2018-07-23T12:49:09.260Z,32.90
2018-07-23T12:51:37.606Z,32.80
2018-07-23T12:54:05.979Z,32.80
2018-07-23T12:56:34.305Z,32.90
2018-07-23T12:59:02.691Z,33.10
2018-07-23T13:01:31.015Z,33.50
2018-07-23T13:03:59.367Z,33.60
2018-07-23T13:08:55.843Z,33.40
2018-07-23T13:11:24.184Z,33.30
2018-07-23T13:13:52.588Z,33.40
2018-07-23T13:18:49.049Z,34.00
2018-07-23T13:21:17.423Z,34.20
2018-07-23T13:26:13.851Z,34.50
2018-07-23T13:28:42.247Z,34.70
2018-07-23T13:33:38.756Z,35.00
2018-07-23T13:36:07.088Z,35.20
2018-07-23T13:45:59.714Z,35.30
2018-07-23T13:48:28.076Z,35.30
2018-07-23T13:50:56.407Z,35.50
2018-07-23T13:53:24.775Z,35.60
2018-07-23T13:55:53.114Z,35.70
2018-07-23T13:58:21.523Z,35.80
2018-07-23T14:00:49.859Z,35.80
2018-07-23T14:05:46.285Z,35.10
2018-07-23T14:08:14.640Z,34.70
2018-07-23T14:10:43.020Z,34.40
2018-07-23T14:13:11.439Z,34.10
2018-07-23T14:15:39.791Z,34.10
2018-07-23T14:18:08.154Z,34.30
2018-07-23T14:20:36.788Z,34.40
2018-07-23T14:23:05.180Z,34.60
2018-07-23T14:25:33.747Z,34.70
2018-07-23T14:28:02.099Z,34.90
2018-07-23T14:30:30.452Z,35.20
2018-07-23T14:32:58.832Z,35.50
2018-07-23T14:35:27.163Z,35.70
2018-07-23T14:37:55.484Z,35.70
2018-07-23T14:40:23.850Z,35.80
2018-07-23T14:42:52.237Z,35.90
2018-07-23T14:45:20.619Z,36.00
2018-07-23T14:47:48.940Z,36.00
2018-07-23T14:50:17.313Z,36.00
2018-07-23T14:52:45.639Z,36.00
2018-07-23T14:55:13.999Z,36.20
2018-07-23T14:57:42.394Z,36.20
2018-07-23T15:00:10.768Z,36.20
2018-07-23T15:02:39.103Z,36.30
2018-07-23T15:05:07.484Z,36.40
2018-07-23T15:07:35.809Z,36.60
2018-07-23T15:10:04.284Z,36.60
2018-07-23T15:12:32.608Z,36.70
2018-07-23T15:15:00.966Z,36.90
2018-07-23T15:17:29.300Z,36.90
2018-07-23T15:19:57.665Z,36.90
2018-07-23T15:22:25.991Z,37.10
2018-07-23T15:24:54.344Z,37.10
2018-07-23T15:27:22.724Z,37.00
2018-07-23T15:29:51.067Z,37.10
2018-07-23T15:32:19.401Z,37.10
2018-07-23T15:34:47.753Z,37.20
2018-07-23T15:37:16.098Z,37.40
2018-07-23T15:39:44.457Z,37.50
2018-07-23T15:44:41.276Z,37.70
2018-07-23T15:47:09.235Z,37.70
2018-07-23T15:49:37.595Z,37.80
2018-07-23T15:52:05.964Z,38.10
2018-07-23T15:54:34.421Z,38.40
2018-07-23T15:59:30.859Z,38.70
2018-07-23T16:01:59.191Z,38.80
2018-07-23T16:04:27.543Z,38.90
2018-07-23T16:06:55.867Z,39.10
2018-07-23T16:09:24.225Z,38.80
2018-07-23T16:11:52.575Z,38.90
2018-07-23T16:14:20.939Z,39.00
2018-07-23T16:19:17.375Z,39.00
2018-07-23T16:21:45.703Z,39.10
2018-07-23T16:24:14.055Z,39.10
2018-07-23T16:26:42.416Z,39.30
2018-07-23T16:29:10.783Z,39.40
2018-07-23T16:31:39.149Z,39.40
2018-07-23T16:34:07.506Z,39.50
2018-07-23T16:36:35.880Z,39.40
2018-07-23T16:39:06.803Z,39.30
2018-07-23T16:41:35.156Z,39.20
2018-07-23T16:44:03.792Z,38.90
2018-07-23T16:46:32.155Z,39.00
2018-07-23T16:49:00.543Z,39.00
2018-07-23T16:51:28.940Z,39.10
2018-07-23T16:53:57.265Z,39.00
2018-07-23T16:56:25.632Z,39.10
2018-07-23T16:58:53.993Z,39.10
2018-07-23T17:01:22.383Z,39.10
2018-07-23T17:03:50.715Z,39.20
2018-07-23T17:06:19.068Z,39.30
2018-07-23T17:11:15.493Z,39.60
2018-07-23T17:13:43.812Z,39.70
2018-07-23T17:18:40.733Z,40.10
2018-07-23T17:21:09.483Z,40.10
2018-07-23T17:23:37.846Z,40.30
2018-07-23T17:26:06.243Z,40.40
2018-07-23T17:28:34.588Z,40.60
2018-07-23T17:31:03.198Z,40.80
2018-07-23T17:33:31.531Z,41.00
2018-07-23T17:35:59.893Z,41.00
2018-07-23T17:38:28.247Z,41.10
2018-07-23T17:40:56.617Z,41.20
2018-07-23T17:43:24.963Z,41.40
2018-07-23T17:45:53.333Z,41.50
2018-07-23T17:48:21.676Z,41.70
2018-07-23T17:50:50.045Z,42.00
2018-07-23T17:53:18.379Z,42.20
2018-07-23T17:55:46.779Z,42.10
2018-07-23T17:58:15.155Z,42.00
2018-07-23T18:03:11.619Z,41.90
2018-07-23T18:08:08.088Z,41.10
2018-07-23T18:10:36.457Z,40.30
2018-07-23T18:13:04.813Z,39.70
2018-07-23T18:15:33.180Z,39.20
2018-07-23T18:18:01.540Z,38.70
2018-07-23T18:20:29.913Z,38.30
2018-07-23T18:22:58.263Z,37.90
2018-07-23T18:25:26.623Z,37.60
2018-07-23T18:27:55.079Z,37.30
2018-07-23T18:30:23.455Z,37.00
2018-07-23T18:32:51.813Z,36.60
2018-07-23T18:35:20.135Z,36.30
2018-07-23T18:37:48.586Z,36.10
2018-07-23T18:42:44.968Z,35.60
2018-07-23T18:45:13.315Z,35.40
2018-07-23T18:47:41.694Z,35.10
2018-07-23T18:50:10.070Z,34.90
2018-07-23T18:52:38.452Z,34.80
2018-07-23T18:55:06.791Z,34.50
2018-07-23T18:57:35.140Z,34.40
2018-07-23T19:02:31.659Z,34.00
2018-07-23T19:04:59.991Z,33.80
2018-07-23T19:07:28.359Z,33.70
2018-07-23T19:14:52.871Z,33.10
2018-07-23T19:17:21.227Z,32.90
2018-07-23T19:19:49.573Z,32.70
2018-07-23T19:22:17.963Z,32.40
2018-07-23T19:24:46.284Z,32.20
2018-07-23T19:27:14.676Z,32.00
2018-07-23T19:29:42.998Z,31.80
2018-07-23T19:32:11.351Z,31.50
2018-07-23T19:34:39.675Z,31.30
2018-07-23T19:37:08.046Z,31.00
2018-07-23T19:39:36.370Z,30.90
2018-07-23T19:44:32.803Z,30.60
2018-07-23T19:47:01.206Z,30.40
2018-07-23T19:51:57.635Z,30.10
2018-07-23T19:54:25.976Z,30.00
2018-07-23T19:56:54.331Z,29.80
2018-07-23T19:59:22.710Z,29.80
2018-07-23T20:01:51.087Z,29.60
2018-07-23T20:04:19.416Z,29.40
2018-07-23T20:06:47.784Z,29.20
2018-07-23T20:09:16.120Z,29.00
2018-07-23T20:11:44.487Z,28.90
2018-07-23T20:16:40.991Z,28.80
2018-07-23T20:19:09.319Z,28.60
2018-07-23T20:24:06.223Z,28.40
2018-07-23T20:26:34.575Z,28.30
2018-07-23T20:29:02.951Z,28.20
2018-07-23T20:31:31.567Z,28.10
2018-07-23T20:33:59.948Z,28.00
2018-07-23T20:36:28.283Z,27.80
2018-07-23T20:41:24.747Z,27.60
2018-07-23T20:46:22.096Z,27.40
2018-07-23T20:48:50.478Z,27.20
2018-07-23T20:51:18.831Z,27.10
2018-07-23T20:53:47.207Z,27.00
2018-07-23T20:56:15.559Z,26.90
2018-07-23T20:58:43.916Z,26.80
2018-07-23T21:03:40.392Z,26.60
2018-07-23T21:06:08.759Z,26.50
2018-07-23T21:11:05.216Z,26.40
2018-07-23T21:13:33.563Z,26.30
2018-07-23T21:16:01.899Z,26.20
2018-07-23T21:18:30.255Z,26.10
2018-07-23T21:20:58.639Z,26.00
2018-07-23T21:23:27.060Z,25.90
2018-07-23T21:25:55.404Z,25.80
2018-07-23T21:28:24.664Z,25.70
2018-07-23T21:30:53.036Z,25.60
2018-07-23T21:33:21.463Z,25.50
2018-07-23T21:35:49.811Z,25.40
2018-07-23T21:40:46.235Z,25.30
2018-07-23T21:43:14.595Z,25.20
2018-07-23T21:45:42.927Z,25.20
2018-07-23T21:50:39.455Z,25.00
2018-07-23T21:53:07.823Z,24.90
2018-07-23T21:55:36.155Z,24.90
2018-07-23T21:58:04.571Z,24.80
2018-07-23T22:00:36.050Z,24.70
2018-07-23T22:03:04.392Z,24.60
2018-07-23T22:05:32.741Z,24.50
2018-07-23T22:08:01.120Z,24.40
2018-07-23T22:10:29.451Z,24.40
2018-07-23T22:12:57.782Z,24.40
2018-07-23T22:15:26.156Z,24.30
2018-07-23T22:17:54.504Z,24.30
2018-07-23T22:20:22.885Z,24.20
2018-07-23T22:22:51.220Z,24.10
2018-07-23T22:25:19.589Z,24.10
2018-07-23T22:27:48.065Z,24.00
2018-07-23T22:30:16.498Z,24.00
2018-07-23T22:32:44.791Z,23.90
2018-07-23T22:35:13.175Z,23.90
2018-07-23T22:40:09.614Z,23.70
2018-07-23T22:42:37.952Z,23.70
2018-07-23T22:45:07.122Z,23.60
2018-07-23T22:47:35.472Z,23.60
2018-07-23T22:50:04.120Z,23.50
2018-07-23T22:52:32.591Z,23.50
2018-07-23T22:55:00.960Z,23.40
2018-07-23T22:57:29.329Z,23.40
2018-07-23T22:59:57.747Z,23.30
2018-07-23T23:02:26.121Z,23.30
2018-07-23T23:04:54.492Z,23.20
2018-07-23T23:07:22.844Z,23.20
2018-07-23T23:09:51.216Z,23.10
2018-07-23T23:12:19.555Z,23.10
2018-07-23T23:14:47.988Z,23.00
2018-07-23T23:17:16.340Z,22.90
2018-07-23T23:19:44.700Z,22.90
2018-07-23T23:22:13.068Z,22.90
2018-07-23T23:24:41.440Z,22.90
2018-07-23T23:27:11.239Z,22.80
2018-07-23T23:29:39.605Z,22.80
2018-07-23T23:32:07.955Z,22.70
2018-07-23T23:34:36.313Z,22.60
2018-07-23T23:37:04.656Z,22.50
2018-07-23T23:39:33.016Z,22.50
2018-07-23T23:42:01.343Z,22.40
2018-07-23T23:44:29.717Z,22.40
2018-07-23T23:46:58.084Z,22.30
2018-07-23T23:49:26.456Z,22.30
2018-07-23T23:51:54.851Z,22.30
2018-07-23T23:54:23.196Z,22.30
2018-07-23T23:56:51.578Z,22.30
2018-07-23T23:59:19.935Z,22.20
